sensor_id;sensor_type;location;lat;lon;timestamp;P1;durP1;ratioP1;P2;durP2;ratioP2
23009;SDS011;11671;49.990;8.028;2023-05-14T00:01:32;714.13;;;670.75;;
23009;SDS011;11671;49.990;8.028;2023-05-14T00:06:23;721.47;;;677.03;;
23009;SDS011;11671;49.990;8.028;2023-05-14T00:08:49;711.78;;;668.47;;
23009;SDS011;11671;49.990;8.028;2023-05-14T00:11:15;722.63;;;678.70;;
23009;SDS011;11671;49.990;8.028;2023-05-14T00:16:06;723.38;;;678.45;;
23009;SDS011;11671;49.990;8.028;2023-05-14T00:20:57;696.42;;;654.05;;
23009;SDS011;11671;49.990;8.028;2023-05-14T00:25:49;683.20;;;642.00;;
23009;SDS011;11671;49.990;8.028;2023-05-14T00:28:14;716.88;;;673.03;;
23009;SDS011;11671;49.990;8.028;2023-05-14T00:33:06;708.83;;;665.47;;
23009;SDS011;11671;49.990;8.028;2023-05-14T00:37:59;712.35;;;667.47;;
23009;SDS011;11671;49.990;8.028;2023-05-14T00:40:26;718.72;;;674.65;;
23009;SDS011;11671;49.990;8.028;2023-05-14T00:42:52;734.88;;;689.13;;
23009;SDS011;11671;49.990;8.028;2023-05-14T00:45:18;726.33;;;681.55;;
23009;SDS011;11671;49.990;8.028;2023-05-14T00:50:09;714.53;;;669.88;;
23009;SDS011;11671;49.990;8.028;2023-05-14T00:52:36;715.33;;;671.28;;
23009;SDS011;11671;49.990;8.028;2023-05-14T00:55:03;745.92;;;699.38;;
23009;SDS011;11671;49.990;8.028;2023-05-14T00:57:30;725.53;;;680.90;;
23009;SDS011;11671;49.990;8.028;2023-05-14T01:02:22;710.70;;;666.70;;
23009;SDS011;11671;49.990;8.028;2023-05-14T01:07:31;697.50;;;654.17;;
23009;SDS011;11671;49.990;8.028;2023-05-14T01:10:12;713.95;;;670.05;;
23009;SDS011;11671;49.990;8.028;2023-05-14T01:13:02;726.38;;;681.00;;
23009;SDS011;11671;49.990;8.028;2023-05-14T01:15:42;720.10;;;676.17;;
23009;SDS011;11671;49.990;8.028;2023-05-14T01:18:11;710.85;;;667.53;;
23009;SDS011;11671;49.990;8.028;2023-05-14T01:20:39;713.00;;;669.10;;
23009;SDS011;11671;49.990;8.028;2023-05-14T01:25:30;706.28;;;662.40;;
23009;SDS011;11671;49.990;8.028;2023-05-14T01:30:28;674.95;;;633.72;;
23009;SDS011;11671;49.990;8.028;2023-05-14T01:32:59;694.33;;;651.88;;
23009;SDS011;11671;49.990;8.028;2023-05-14T01:35:30;687.60;;;645.95;;
23009;SDS011;11671;49.990;8.028;2023-05-14T01:42:49;674.92;;;632.85;;
23009;SDS011;11671;49.990;8.028;2023-05-14T01:45:21;685.10;;;643.20;;
23009;SDS011;11671;49.990;8.028;2023-05-14T01:47:47;701.22;;;657.72;;
23009;SDS011;11671;49.990;8.028;2023-05-14T01:52:39;681.63;;;639.67;;
23009;SDS011;11671;49.990;8.028;2023-05-14T01:55:05;698.53;;;655.00;;
23009;SDS011;11671;49.990;8.028;2023-05-14T01:59:57;683.05;;;640.03;;
23009;SDS011;11671;49.990;8.028;2023-05-14T02:02:22;691.50;;;648.70;;
23009;SDS011;11671;49.990;8.028;2023-05-14T02:07:14;678.80;;;636.90;;
23009;SDS011;11671;49.990;8.028;2023-05-14T02:09:39;677.47;;;636.35;;
23009;SDS011;11671;49.990;8.028;2023-05-14T02:14:31;672.30;;;630.10;;
23009;SDS011;11671;49.990;8.028;2023-05-14T02:19:22;657.50;;;617.33;;
23009;SDS011;11671;49.990;8.028;2023-05-14T02:24:13;649.17;;;608.72;;
23009;SDS011;11671;49.990;8.028;2023-05-14T02:29:05;661.50;;;620.25;;
23009;SDS011;11671;49.990;8.028;2023-05-14T02:33:57;657.60;;;617.03;;
23009;SDS011;11671;49.990;8.028;2023-05-14T02:38:48;655.88;;;615.45;;
23009;SDS011;11671;49.990;8.028;2023-05-14T02:43:39;649.33;;;609.25;;
23009;SDS011;11671;49.990;8.028;2023-05-14T02:46:05;649.97;;;610.85;;
23009;SDS011;11671;49.990;8.028;2023-05-14T02:50:56;662.17;;;621.45;;
23009;SDS011;11671;49.990;8.028;2023-05-14T02:53:21;662.15;;;622.05;;
23009;SDS011;11671;49.990;8.028;2023-05-14T02:58:12;658.30;;;617.92;;
23009;SDS011;11671;49.990;8.028;2023-05-14T03:03:04;647.85;;;607.33;;
23009;SDS011;11671;49.990;8.028;2023-05-14T03:07:55;655.95;;;615.40;;
23009;SDS011;11671;49.990;8.028;2023-05-14T03:12:46;638.00;;;598.67;;
23009;SDS011;11671;49.990;8.028;2023-05-14T03:17:37;646.63;;;606.13;;
23009;SDS011;11671;49.990;8.028;2023-05-14T03:22:29;639.95;;;598.92;;
23009;SDS011;11671;49.990;8.028;2023-05-14T03:27:20;645.08;;;603.95;;
23009;SDS011;11671;49.990;8.028;2023-05-14T03:32:11;627.65;;;588.67;;
23009;SDS011;11671;49.990;8.028;2023-05-14T03:34:37;659.45;;;618.15;;
23009;SDS011;11671;49.990;8.028;2023-05-14T03:39:29;643.53;;;602.85;;
23009;SDS011;11671;49.990;8.028;2023-05-14T03:44:23;624.45;;;585.33;;
23009;SDS011;11671;49.990;8.028;2023-05-14T03:46:49;639.05;;;599.75;;
23009;SDS011;11671;49.990;8.028;2023-05-14T03:51:40;624.53;;;585.97;;
23009;SDS011;11671;49.990;8.028;2023-05-14T03:56:31;630.65;;;591.22;;
23009;SDS011;11671;49.990;8.028;2023-05-14T04:01:22;642.03;;;601.85;;
23009;SDS011;11671;49.990;8.028;2023-05-14T04:03:48;653.15;;;613.20;;
23009;SDS011;11671;49.990;8.028;2023-05-14T04:06:13;664.78;;;624.10;;
23009;SDS011;11671;49.990;8.028;2023-05-14T04:11:04;656.28;;;616.47;;
23009;SDS011;11671;49.990;8.028;2023-05-14T04:13:30;669.83;;;628.97;;
23009;SDS011;11671;49.990;8.028;2023-05-14T04:18:21;662.40;;;622.20;;
23009;SDS011;11671;49.990;8.028;2023-05-14T04:20:46;666.60;;;626.58;;
23009;SDS011;11671;49.990;8.028;2023-05-14T04:25:37;654.53;;;614.30;;
23009;SDS011;11671;49.990;8.028;2023-05-14T04:28:03;679.75;;;639.05;;
23009;SDS011;11671;49.990;8.028;2023-05-14T04:32:54;675.63;;;635.08;;
23009;SDS011;11671;49.990;8.028;2023-05-14T04:37:46;657.20;;;617.83;;
23009;SDS011;11671;49.990;8.028;2023-05-14T04:40:13;670.90;;;630.55;;
23009;SDS011;11671;49.990;8.028;2023-05-14T04:42:40;675.70;;;635.67;;
23009;SDS011;11671;49.990;8.028;2023-05-14T04:47:32;687.67;;;646.08;;
23009;SDS011;11671;49.990;8.028;2023-05-14T04:52:24;666.45;;;626.80;;
23009;SDS011;11671;49.990;8.028;2023-05-14T04:54:49;697.35;;;655.50;;
23009;SDS011;11671;49.990;8.028;2023-05-14T04:59:40;631.60;;;595.00;;
23009;SDS011;11671;49.990;8.028;2023-05-14T05:04:32;548.70;;;517.58;;
23009;SDS011;11671;49.990;8.028;2023-05-14T05:09:23;434.00;;;408.60;;
23009;SDS011;11671;49.990;8.028;2023-05-14T05:14:14;403.83;;;379.23;;
23009;SDS011;11671;49.990;8.028;2023-05-14T05:16:39;407.58;;;381.95;;
23009;SDS011;11671;49.990;8.028;2023-05-14T05:21:30;347.38;;;325.33;;
23009;SDS011;11671;49.990;8.028;2023-05-14T05:23:56;313.65;;;293.95;;
23009;SDS011;11671;49.990;8.028;2023-05-14T05:26:22;291.50;;;273.67;;
23009;SDS011;11671;49.990;8.028;2023-05-14T05:28:48;305.80;;;286.27;;
23009;SDS011;11671;49.990;8.028;2023-05-14T05:31:14;284.90;;;266.75;;
23009;SDS011;11671;49.990;8.028;2023-05-14T05:33:40;246.05;;;230.98;;
23009;SDS011;11671;49.990;8.028;2023-05-14T05:36:06;275.38;;;258.10;;
23009;SDS011;11671;49.990;8.028;2023-05-14T05:38:31;281.52;;;263.95;;
23009;SDS011;11671;49.990;8.028;2023-05-14T05:40:57;290.10;;;272.08;;
23009;SDS011;11671;49.990;8.028;2023-05-14T05:43:23;324.98;;;304.38;;
23009;SDS011;11671;49.990;8.028;2023-05-14T05:48:14;333.48;;;313.20;;
23009;SDS011;11671;49.990;8.028;2023-05-14T05:50:39;291.35;;;274.23;;
23009;SDS011;11671;49.990;8.028;2023-05-14T05:53:06;300.73;;;282.83;;
23009;SDS011;11671;49.990;8.028;2023-05-14T05:57:57;280.73;;;263.63;;
23009;SDS011;11671;49.990;8.028;2023-05-14T06:00:23;271.98;;;254.63;;
23009;SDS011;11671;49.990;8.028;2023-05-14T06:02:49;277.55;;;259.55;;
23009;SDS011;11671;49.990;8.028;2023-05-14T06:05:15;259.55;;;242.90;;
23009;SDS011;11671;49.990;8.028;2023-05-14T06:07:40;267.90;;;250.45;;
23009;SDS011;11671;49.990;8.028;2023-05-14T06:10:06;279.50;;;261.58;;
23009;SDS011;11671;49.990;8.028;2023-05-14T06:12:32;283.67;;;265.42;;
23009;SDS011;11671;49.990;8.028;2023-05-14T06:14:57;251.60;;;236.00;;
23009;SDS011;11671;49.990;8.028;2023-05-14T06:17:23;294.85;;;275.88;;
23009;SDS011;11671;49.990;8.028;2023-05-14T06:19:50;347.70;;;324.40;;
23009;SDS011;11671;49.990;8.028;2023-05-14T06:22:16;306.90;;;287.45;;
23009;SDS011;11671;49.990;8.028;2023-05-14T06:24:41;298.48;;;280.02;;
23009;SDS011;11671;49.990;8.028;2023-05-14T06:27:07;296.73;;;278.25;;
23009;SDS011;11671;49.990;8.028;2023-05-14T06:29:34;291.02;;;273.13;;
23009;SDS011;11671;49.990;8.028;2023-05-14T06:32:00;247.98;;;232.23;;
23009;SDS011;11671;49.990;8.028;2023-05-14T06:34:26;240.77;;;226.02;;
23009;SDS011;11671;49.990;8.028;2023-05-14T06:36:52;229.77;;;215.73;;
23009;SDS011;11671;49.990;8.028;2023-05-14T06:39:18;205.55;;;193.18;;
23009;SDS011;11671;49.990;8.028;2023-05-14T06:41:43;217.85;;;204.40;;
23009;SDS011;11671;49.990;8.028;2023-05-14T06:44:09;205.75;;;193.02;;
23009;SDS011;11671;49.990;8.028;2023-05-14T06:46:35;190.52;;;178.88;;
23009;SDS011;11671;49.990;8.028;2023-05-14T06:49:01;225.35;;;210.98;;
23009;SDS011;11671;49.990;8.028;2023-05-14T06:51:27;250.40;;;234.02;;
23009;SDS011;11671;49.990;8.028;2023-05-14T06:53:53;231.23;;;216.70;;
23009;SDS011;11671;49.990;8.028;2023-05-14T06:56:19;254.05;;;237.65;;
23009;SDS011;11671;49.990;8.028;2023-05-14T06:58:46;265.27;;;247.98;;
23009;SDS011;11671;49.990;8.028;2023-05-14T07:01:11;291.80;;;272.52;;
23009;SDS011;11671;49.990;8.028;2023-05-14T07:03:37;302.55;;;282.60;;
23009;SDS011;11671;49.990;8.028;2023-05-14T07:06:03;306.63;;;286.67;;
23009;SDS011;11671;49.990;8.028;2023-05-14T07:08:29;339.55;;;316.70;;
23009;SDS011;11671;49.990;8.028;2023-05-14T07:10:54;313.20;;;293.00;;
23009;SDS011;11671;49.990;8.028;2023-05-14T07:13:21;282.17;;;264.23;;
23009;SDS011;11671;49.990;8.028;2023-05-14T07:15:47;245.50;;;230.57;;
23009;SDS011;11671;49.990;8.028;2023-05-14T07:18:13;268.15;;;250.75;;
23009;SDS011;11671;49.990;8.028;2023-05-14T07:20:38;270.95;;;253.57;;
23009;SDS011;11671;49.990;8.028;2023-05-14T07:23:04;274.40;;;256.50;;
23009;SDS011;11671;49.990;8.028;2023-05-14T07:25:29;261.50;;;244.75;;
23009;SDS011;11671;49.990;8.028;2023-05-14T07:27:56;242.63;;;227.27;;
23009;SDS011;11671;49.990;8.028;2023-05-14T07:30:22;232.90;;;218.40;;
23009;SDS011;11671;49.990;8.028;2023-05-14T07:32:47;243.20;;;227.60;;
23009;SDS011;11671;49.990;8.028;2023-05-14T07:35:13;218.95;;;205.35;;
23009;SDS011;11671;49.990;8.028;2023-05-14T07:37:39;225.90;;;211.55;;
23009;SDS011;11671;49.990;8.028;2023-05-14T07:40:05;228.15;;;213.70;;
23009;SDS011;11671;49.990;8.028;2023-05-14T07:42:31;241.00;;;225.45;;
23009;SDS011;11671;49.990;8.028;2023-05-14T07:44:56;217.38;;;203.88;;
23009;SDS011;11671;49.990;8.028;2023-05-14T07:47:22;231.45;;;216.60;;
23009;SDS011;11671;49.990;8.028;2023-05-14T07:49:48;216.57;;;202.88;;
23009;SDS011;11671;49.990;8.028;2023-05-14T07:52:13;223.75;;;209.38;;
23009;SDS011;11671;49.990;8.028;2023-05-14T07:54:39;191.70;;;180.05;;
23009;SDS011;11671;49.990;8.028;2023-05-14T07:57:04;195.50;;;183.48;;
23009;SDS011;11671;49.990;8.028;2023-05-14T07:59:30;207.60;;;194.68;;
23009;SDS011;11671;49.990;8.028;2023-05-14T08:01:56;208.10;;;194.82;;
23009;SDS011;11671;49.990;8.028;2023-05-14T08:04:21;210.40;;;196.95;;
23009;SDS011;11671;49.990;8.028;2023-05-14T08:06:47;212.60;;;199.27;;
23009;SDS011;11671;49.990;8.028;2023-05-14T08:09:13;186.68;;;175.43;;
23009;SDS011;11671;49.990;8.028;2023-05-14T08:11:42;208.63;;;195.57;;
23009;SDS011;11671;49.990;8.028;2023-05-14T08:14:08;198.85;;;186.52;;
23009;SDS011;11671;49.990;8.028;2023-05-14T08:16:34;186.90;;;175.68;;
23009;SDS011;11671;49.990;8.028;2023-05-14T08:18:59;180.30;;;169.52;;
23009;SDS011;11671;49.990;8.028;2023-05-14T08:21:25;177.00;;;166.57;;
23009;SDS011;11671;49.990;8.028;2023-05-14T08:23:52;182.93;;;172.18;;
23009;SDS011;11671;49.990;8.028;2023-05-14T08:26:17;202.68;;;190.43;;
23009;SDS011;11671;49.990;8.028;2023-05-14T08:28:43;208.95;;;196.23;;
23009;SDS011;11671;49.990;8.028;2023-05-14T08:31:08;216.70;;;203.45;;
23009;SDS011;11671;49.990;8.028;2023-05-14T08:33:34;223.20;;;209.02;;
23009;SDS011;11671;49.990;8.028;2023-05-14T08:36:00;207.73;;;195.30;;
23009;SDS011;11671;49.990;8.028;2023-05-14T08:38:25;226.15;;;212.18;;
23009;SDS011;11671;49.990;8.028;2023-05-14T08:40:57;234.50;;;220.02;;
23009;SDS011;11671;49.990;8.028;2023-05-14T08:43:29;224.10;;;210.63;;
23009;SDS011;11671;49.990;8.028;2023-05-14T08:46:00;252.80;;;236.88;;
23009;SDS011;11671;49.990;8.028;2023-05-14T08:48:31;265.17;;;248.15;;
23009;SDS011;11671;49.990;8.028;2023-05-14T08:50:58;264.80;;;246.57;;
23009;SDS011;11671;49.990;8.028;2023-05-14T08:53:24;212.77;;;200.18;;
23009;SDS011;11671;49.990;8.028;2023-05-14T08:55:50;228.07;;;213.68;;
23009;SDS011;11671;49.990;8.028;2023-05-14T08:58:17;247.85;;;232.20;;
23009;SDS011;11671;49.990;8.028;2023-05-14T09:00:43;240.88;;;225.98;;
23009;SDS011;11671;49.990;8.028;2023-05-14T09:03:09;245.07;;;229.57;;
23009;SDS011;11671;49.990;8.028;2023-05-14T09:05:36;234.65;;;220.40;;
23009;SDS011;11671;49.990;8.028;2023-05-14T09:08:02;224.40;;;210.95;;
23009;SDS011;11671;49.990;8.028;2023-05-14T09:10:28;233.88;;;219.80;;
23009;SDS011;11671;49.990;8.028;2023-05-14T09:12:53;224.93;;;211.38;;
23009;SDS011;11671;49.990;8.028;2023-05-14T09:15:19;256.67;;;240.70;;
23009;SDS011;11671;49.990;8.028;2023-05-14T09:17:44;247.48;;;232.25;;
23009;SDS011;11671;49.990;8.028;2023-05-14T09:20:12;218.85;;;205.65;;
23009;SDS011;11671;49.990;8.028;2023-05-14T09:22:39;249.00;;;233.65;;
23009;SDS011;11671;49.990;8.028;2023-05-14T09:25:06;255.10;;;239.45;;
23009;SDS011;11671;49.990;8.028;2023-05-14T09:27:34;249.93;;;234.70;;
23009;SDS011;11671;49.990;8.028;2023-05-14T09:30:10;265.08;;;248.48;;
23009;SDS011;11671;49.990;8.028;2023-05-14T09:32:41;242.40;;;227.73;;
23009;SDS011;11671;49.990;8.028;2023-05-14T09:35:19;255.95;;;240.25;;
23009;SDS011;11671;49.990;8.028;2023-05-14T09:37:47;283.65;;;265.58;;
23009;SDS011;11671;49.990;8.028;2023-05-14T09:40:14;294.70;;;276.00;;
23009;SDS011;11671;49.990;8.028;2023-05-14T09:42:41;326.77;;;305.50;;
23009;SDS011;11671;49.990;8.028;2023-05-14T09:45:07;315.75;;;295.52;;
23009;SDS011;11671;49.990;8.028;2023-05-14T09:47:34;333.63;;;311.88;;
23009;SDS011;11671;49.990;8.028;2023-05-14T09:50:00;305.95;;;286.55;;
23009;SDS011;11671;49.990;8.028;2023-05-14T09:52:27;286.90;;;268.92;;
23009;SDS011;11671;49.990;8.028;2023-05-14T09:54:52;329.70;;;308.15;;
23009;SDS011;11671;49.990;8.028;2023-05-14T09:57:18;308.38;;;288.58;;
23009;SDS011;11671;49.990;8.028;2023-05-14T09:59:44;302.05;;;282.70;;
23009;SDS011;11671;49.990;8.028;2023-05-14T10:02:14;285.63;;;267.58;;
23009;SDS011;11671;49.990;8.028;2023-05-14T10:04:50;288.80;;;270.42;;
23009;SDS011;11671;49.990;8.028;2023-05-14T10:07:20;274.17;;;256.92;;
23009;SDS011;11671;49.990;8.028;2023-05-14T10:09:47;274.73;;;257.63;;
23009;SDS011;11671;49.990;8.028;2023-05-14T10:14:35;281.45;;;264.02;;
23009;SDS011;11671;49.990;8.028;2023-05-14T10:17:05;296.45;;;277.75;;
23009;SDS011;11671;49.990;8.028;2023-05-14T10:19:32;297.90;;;278.83;;
23009;SDS011;11671;49.990;8.028;2023-05-14T10:22:04;370.45;;;345.25;;
23009;SDS011;11671;49.990;8.028;2023-05-14T10:24:32;358.55;;;334.70;;
23009;SDS011;11671;49.990;8.028;2023-05-14T10:26:58;357.08;;;333.15;;
23009;SDS011;11671;49.990;8.028;2023-05-14T10:29:34;346.00;;;323.15;;
23009;SDS011;11671;49.990;8.028;2023-05-14T10:32:02;358.70;;;334.55;;
23009;SDS011;11671;49.990;8.028;2023-05-14T10:34:31;361.65;;;337.80;;
23009;SDS011;11671;49.990;8.028;2023-05-14T10:37:11;365.70;;;340.92;;
23009;SDS011;11671;49.990;8.028;2023-05-14T10:39:39;361.30;;;337.42;;
23009;SDS011;11671;49.990;8.028;2023-05-14T10:42:05;359.58;;;335.92;;
23009;SDS011;11671;49.990;8.028;2023-05-14T10:44:32;355.88;;;332.67;;
23009;SDS011;11671;49.990;8.028;2023-05-14T10:46:59;353.98;;;331.13;;
23009;SDS011;11671;49.990;8.028;2023-05-14T10:49:26;383.08;;;357.75;;
23009;SDS011;11671;49.990;8.028;2023-05-14T10:51:52;369.58;;;345.55;;
23009;SDS011;11671;49.990;8.028;2023-05-14T10:54:18;375.35;;;350.80;;
23009;SDS011;11671;49.990;8.028;2023-05-14T10:56:46;365.98;;;342.02;;
23009;SDS011;11671;49.990;8.028;2023-05-14T10:59:15;354.20;;;331.20;;
23009;SDS011;11671;49.990;8.028;2023-05-14T11:01:41;355.02;;;331.73;;
23009;SDS011;11671;49.990;8.028;2023-05-14T11:04:07;344.88;;;322.52;;
23009;SDS011;11671;49.990;8.028;2023-05-14T11:06:33;307.75;;;288.40;;
23009;SDS011;11671;49.990;8.028;2023-05-14T11:09:01;339.58;;;317.42;;
23009;SDS011;11671;49.990;8.028;2023-05-14T11:11:27;327.63;;;306.58;;
23009;SDS011;11671;49.990;8.028;2023-05-14T11:13:53;327.33;;;306.23;;
23009;SDS011;11671;49.990;8.028;2023-05-14T11:16:20;349.15;;;326.20;;
23009;SDS011;11671;49.990;8.028;2023-05-14T11:18:47;358.73;;;334.92;;
23009;SDS011;11671;49.990;8.028;2023-05-14T11:21:18;368.88;;;344.33;;
23009;SDS011;11671;49.990;8.028;2023-05-14T11:23:46;353.08;;;330.10;;
23009;SDS011;11671;49.990;8.028;2023-05-14T11:26:12;320.02;;;299.63;;
23009;SDS011;11671;49.990;8.028;2023-05-14T11:28:38;332.33;;;310.80;;
23009;SDS011;11671;49.990;8.028;2023-05-14T11:31:04;292.95;;;274.65;;
23009;SDS011;11671;49.990;8.028;2023-05-14T11:33:29;295.38;;;276.83;;
23009;SDS011;11671;49.990;8.028;2023-05-14T11:35:55;297.65;;;278.83;;
23009;SDS011;11671;49.990;8.028;2023-05-14T11:38:21;283.65;;;265.58;;
23009;SDS011;11671;49.990;8.028;2023-05-14T11:40:50;259.63;;;243.60;;
23009;SDS011;11671;49.990;8.028;2023-05-14T11:43:17;259.58;;;243.73;;
23009;SDS011;11671;49.990;8.028;2023-05-14T11:45:43;258.95;;;242.73;;
23009;SDS011;11671;49.990;8.028;2023-05-14T11:48:14;285.05;;;266.83;;
23009;SDS011;11671;49.990;8.028;2023-05-14T11:50:42;307.55;;;287.65;;
23009;SDS011;11671;49.990;8.028;2023-05-14T11:53:09;285.50;;;267.45;;
23009;SDS011;11671;49.990;8.028;2023-05-14T11:55:35;276.02;;;258.80;;
23009;SDS011;11671;49.990;8.028;2023-05-14T11:58:00;291.23;;;272.42;;
23009;SDS011;11671;49.990;8.028;2023-05-14T12:00:26;290.00;;;271.55;;
23009;SDS011;11671;49.990;8.028;2023-05-14T12:02:52;283.42;;;265.55;;
23009;SDS011;11671;49.990;8.028;2023-05-14T12:05:18;272.08;;;255.13;;
23009;SDS011;11671;49.990;8.028;2023-05-14T12:07:44;307.58;;;287.60;;
23009;SDS011;11671;49.990;8.028;2023-05-14T12:10:11;311.15;;;290.98;;
23009;SDS011;11671;49.990;8.028;2023-05-14T12:12:37;323.58;;;302.10;;
23009;SDS011;11671;49.990;8.028;2023-05-14T12:15:09;305.80;;;286.15;;
23009;SDS011;11671;49.990;8.028;2023-05-14T12:17:36;320.55;;;299.77;;
23009;SDS011;11671;49.990;8.028;2023-05-14T12:20:03;279.00;;;261.60;;
23009;SDS011;11671;49.990;8.028;2023-05-14T12:22:32;293.75;;;275.10;;
23009;SDS011;11671;49.990;8.028;2023-05-14T12:24:58;297.05;;;277.92;;
23009;SDS011;11671;49.990;8.028;2023-05-14T12:27:25;308.48;;;288.42;;
23009;SDS011;11671;49.990;8.028;2023-05-14T12:30:01;294.63;;;275.83;;
23009;SDS011;11671;49.990;8.028;2023-05-14T12:32:31;299.38;;;280.23;;
23009;SDS011;11671;49.990;8.028;2023-05-14T12:34:58;309.27;;;289.30;;
23009;SDS011;11671;49.990;8.028;2023-05-14T12:37:25;301.40;;;281.98;;
23009;SDS011;11671;49.990;8.028;2023-05-14T12:39:51;325.08;;;303.80;;
23009;SDS011;11671;49.990;8.028;2023-05-14T12:42:17;341.08;;;318.73;;
23009;SDS011;11671;49.990;8.028;2023-05-14T12:44:42;344.42;;;321.85;;
23009;SDS011;11671;49.990;8.028;2023-05-14T12:47:08;337.30;;;315.50;;
23009;SDS011;11671;49.990;8.028;2023-05-14T12:49:34;345.83;;;323.17;;
23009;SDS011;11671;49.990;8.028;2023-05-14T12:52:00;346.80;;;324.42;;
23009;SDS011;11671;49.990;8.028;2023-05-14T12:54:26;330.05;;;309.13;;
23009;SDS011;11671;49.990;8.028;2023-05-14T12:56:51;310.55;;;291.17;;
23009;SDS011;11671;49.990;8.028;2023-05-14T12:59:17;312.50;;;292.95;;
23009;SDS011;11671;49.990;8.028;2023-05-14T13:01:43;295.55;;;277.45;;
23009;SDS011;11671;49.990;8.028;2023-05-14T13:04:09;296.88;;;278.70;;
23009;SDS011;11671;49.990;8.028;2023-05-14T13:06:36;324.85;;;304.23;;
23009;SDS011;11671;49.990;8.028;2023-05-14T13:09:03;298.38;;;280.08;;
23009;SDS011;11671;49.990;8.028;2023-05-14T13:11:29;283.20;;;265.80;;
23009;SDS011;11671;49.990;8.028;2023-05-14T13:13:56;294.15;;;275.60;;
23009;SDS011;11671;49.990;8.028;2023-05-14T13:16:23;289.00;;;271.10;;
23009;SDS011;11671;49.990;8.028;2023-05-14T13:18:49;296.52;;;277.73;;
23009;SDS011;11671;49.990;8.028;2023-05-14T13:21:15;302.33;;;283.05;;
23009;SDS011;11671;49.990;8.028;2023-05-14T13:23:41;288.23;;;270.02;;
23009;SDS011;11671;49.990;8.028;2023-05-14T13:26:06;308.52;;;288.52;;
23009;SDS011;11671;49.990;8.028;2023-05-14T13:28:32;281.20;;;263.42;;
23009;SDS011;11671;49.990;8.028;2023-05-14T13:31:10;285.27;;;267.08;;
23009;SDS011;11671;49.990;8.028;2023-05-14T13:33:41;282.73;;;264.73;;
23009;SDS011;11671;49.990;8.028;2023-05-14T13:36:08;249.35;;;233.65;;
23009;SDS011;11671;49.990;8.028;2023-05-14T13:38:36;245.98;;;230.73;;
23009;SDS011;11671;49.990;8.028;2023-05-14T13:41:02;258.65;;;242.60;;
23009;SDS011;11671;49.990;8.028;2023-05-14T13:43:31;300.40;;;280.80;;
23009;SDS011;11671;49.990;8.028;2023-05-14T13:45:57;294.83;;;275.98;;
23009;SDS011;11671;49.990;8.028;2023-05-14T13:48:23;292.10;;;273.50;;
23009;SDS011;11671;49.990;8.028;2023-05-14T13:50:49;272.65;;;255.80;;
23009;SDS011;11671;49.990;8.028;2023-05-14T13:53:19;273.02;;;256.35;;
23009;SDS011;11671;49.990;8.028;2023-05-14T13:55:47;256.02;;;240.82;;
23009;SDS011;11671;49.990;8.028;2023-05-14T13:58:12;273.33;;;256.75;;
23009;SDS011;11671;49.990;8.028;2023-05-14T14:00:38;283.80;;;266.30;;
23009;SDS011;11671;49.990;8.028;2023-05-14T14:03:05;258.48;;;242.95;;
23009;SDS011;11671;49.990;8.028;2023-05-14T14:05:32;253.07;;;238.02;;
23009;SDS011;11671;49.990;8.028;2023-05-14T14:07:58;256.75;;;241.02;;
23009;SDS011;11671;49.990;8.028;2023-05-14T14:10:24;254.93;;;239.20;;
23009;SDS011;11671;49.990;8.028;2023-05-14T14:12:50;270.25;;;253.50;;
23009;SDS011;11671;49.990;8.028;2023-05-14T14:15:16;270.33;;;253.55;;
23009;SDS011;11671;49.990;8.028;2023-05-14T14:17:41;256.35;;;240.50;;
23009;SDS011;11671;49.990;8.028;2023-05-14T14:20:07;237.85;;;223.57;;
23009;SDS011;11671;49.990;8.028;2023-05-14T14:22:33;228.15;;;214.65;;
23009;SDS011;11671;49.990;8.028;2023-05-14T14:24:59;221.10;;;208.05;;
23009;SDS011;11671;49.990;8.028;2023-05-14T14:27:25;232.27;;;218.40;;
23009;SDS011;11671;49.990;8.028;2023-05-14T14:29:51;252.52;;;236.90;;
23009;SDS011;11671;49.990;8.028;2023-05-14T14:32:17;271.75;;;254.80;;
23009;SDS011;11671;49.990;8.028;2023-05-14T14:34:42;242.57;;;228.00;;
23009;SDS011;11671;49.990;8.028;2023-05-14T14:37:08;268.70;;;251.88;;
23009;SDS011;11671;49.990;8.028;2023-05-14T14:39:33;296.83;;;277.77;;
23009;SDS011;11671;49.990;8.028;2023-05-14T14:41:59;284.75;;;266.75;;
23009;SDS011;11671;49.990;8.028;2023-05-14T14:44:25;290.17;;;271.75;;
23009;SDS011;11671;49.990;8.028;2023-05-14T14:46:50;274.40;;;257.10;;
23009;SDS011;11671;49.990;8.028;2023-05-14T14:49:16;271.30;;;254.27;;
23009;SDS011;11671;49.990;8.028;2023-05-14T14:51:41;268.83;;;252.00;;
23009;SDS011;11671;49.990;8.028;2023-05-14T14:54:07;285.02;;;266.92;;
23009;SDS011;11671;49.990;8.028;2023-05-14T14:56:33;289.17;;;270.63;;
23009;SDS011;11671;49.990;8.028;2023-05-14T14:58:58;308.92;;;288.67;;
23009;SDS011;11671;49.990;8.028;2023-05-14T15:01:24;299.15;;;279.83;;
23009;SDS011;11671;49.990;8.028;2023-05-14T15:03:50;313.02;;;292.55;;
23009;SDS011;11671;49.990;8.028;2023-05-14T15:06:16;316.52;;;295.75;;
23009;SDS011;11671;49.990;8.028;2023-05-14T15:08:42;305.13;;;285.15;;
23009;SDS011;11671;49.990;8.028;2023-05-14T15:11:07;308.25;;;288.30;;
23009;SDS011;11671;49.990;8.028;2023-05-14T15:13:33;299.17;;;279.80;;
23009;SDS011;11671;49.990;8.028;2023-05-14T15:15:58;267.38;;;250.85;;
23009;SDS011;11671;49.990;8.028;2023-05-14T15:18:24;253.05;;;237.60;;
23009;SDS011;11671;49.990;8.028;2023-05-14T15:20:50;256.27;;;240.60;;
23009;SDS011;11671;49.990;8.028;2023-05-14T15:23:16;286.45;;;268.33;;
23009;SDS011;11671;49.990;8.028;2023-05-14T15:25:42;283.73;;;265.88;;
23009;SDS011;11671;49.990;8.028;2023-05-14T15:28:13;281.92;;;264.40;;
23009;SDS011;11671;49.990;8.028;2023-05-14T15:31:00;295.83;;;277.27;;
23009;SDS011;11671;49.990;8.028;2023-05-14T15:33:26;265.50;;;249.35;;
23009;SDS011;11671;49.990;8.028;2023-05-14T15:35:52;251.40;;;236.10;;
23009;SDS011;11671;49.990;8.028;2023-05-14T15:38:17;271.05;;;254.43;;
23009;SDS011;11671;49.990;8.028;2023-05-14T15:40:43;311.48;;;291.58;;
23009;SDS011;11671;49.990;8.028;2023-05-14T15:43:08;327.73;;;306.55;;
23009;SDS011;11671;49.990;8.028;2023-05-14T15:45:34;345.27;;;322.10;;
23009;SDS011;11671;49.990;8.028;2023-05-14T15:48:00;337.83;;;316.20;;
23009;SDS011;11671;49.990;8.028;2023-05-14T15:50:25;342.65;;;320.80;;
23009;SDS011;11671;49.990;8.028;2023-05-14T15:52:51;366.15;;;342.10;;
23009;SDS011;11671;49.990;8.028;2023-05-14T15:55:17;353.95;;;331.42;;
23009;SDS011;11671;49.990;8.028;2023-05-14T16:00:08;393.25;;;368.33;;
23009;SDS011;11671;49.990;8.028;2023-05-14T16:02:35;388.38;;;363.75;;